createdAt,value
2019-06-27T00:00:16.304Z,14.75
2019-06-27T00:00:49.431Z,14.75
2019-06-27T00:01:22.372Z,14.75
2019-06-27T00:01:55.312Z,14.75
2019-06-27T00:02:28.446Z,14.75
2019-06-27T00:03:01.566Z,14.75
2019-06-27T00:03:36.494Z,14.75
2019-06-27T00:04:09.438Z,14.69
2019-06-27T00:04:43.452Z,14.69
2019-06-27T00:05:16.602Z,14.75
2019-06-27T00:05:49.632Z,14.69
2019-06-27T00:06:22.551Z,14.75
2019-06-27T00:06:55.570Z,14.69
2019-06-27T00:07:28.526Z,14.69
2019-06-27T00:08:01.578Z,14.69
2019-06-27T00:08:34.516Z,14.69
2019-06-27T00:09:09.904Z,14.69
2019-06-27T00:09:42.865Z,14.69
2019-06-27T00:10:17.346Z,14.69
2019-06-27T00:10:50.273Z,14.69
2019-06-27T00:11:23.354Z,14.69
2019-06-27T00:11:56.276Z,14.69
2019-06-27T00:12:29.501Z,14.69
2019-06-27T00:13:03.153Z,14.69
2019-06-27T00:13:36.200Z,14.69
2019-06-27T00:14:09.108Z,14.69
2019-06-27T00:14:42.130Z,14.69
2019-06-27T00:15:15.018Z,14.69
2019-06-27T00:15:47.928Z,14.69
2019-06-27T00:16:20.982Z,14.69
2019-06-27T00:16:54.078Z,14.69
2019-06-27T00:17:27.334Z,14.69
2019-06-27T00:18:00.344Z,14.69
2019-06-27T00:18:33.278Z,14.69
2019-06-27T00:19:07.234Z,14.69
2019-06-27T00:19:40.404Z,14.69
2019-06-27T00:20:13.688Z,14.69
2019-06-27T00:20:46.695Z,14.69
2019-06-27T00:21:19.548Z,14.69
2019-06-27T00:21:52.378Z,14.69
2019-06-27T00:22:25.414Z,14.69
2019-06-27T00:22:59.083Z,14.69
2019-06-27T00:23:32.062Z,14.75
2019-06-27T00:24:05.122Z,14.69
2019-06-27T00:24:37.914Z,14.69
2019-06-27T00:25:10.951Z,14.69
2019-06-27T00:25:43.859Z,14.75
2019-06-27T00:26:16.874Z,14.75
2019-06-27T00:26:57.114Z,14.75
2019-06-27T00:27:24.732Z,14.75
2019-06-27T00:27:57.628Z,14.75
2019-06-27T00:28:30.746Z,14.75
2019-06-27T00:29:04.361Z,14.75
2019-06-27T00:29:38.372Z,14.69
2019-06-27T00:30:12.189Z,14.69
2019-06-27T00:30:45.174Z,14.69
2019-06-27T00:31:18.192Z,14.69
2019-06-27T00:31:51.229Z,14.69
2019-06-27T00:32:25.136Z,14.69
2019-06-27T00:32:58.078Z,14.69
2019-06-27T00:33:31.148Z,14.63
2019-06-27T00:34:04.199Z,14.69
2019-06-27T00:34:37.082Z,14.63
2019-06-27T00:35:10.129Z,14.63
2019-06-27T00:35:43.124Z,14.63
2019-06-27T00:36:16.026Z,14.63
2019-06-27T00:36:48.988Z,14.63
2019-06-27T00:37:22.020Z,14.63
2019-06-27T00:37:54.805Z,14.63
2019-06-27T00:38:29.361Z,14.63
2019-06-27T00:39:02.542Z,14.56
2019-06-27T00:39:35.924Z,14.56
2019-06-27T00:40:09.069Z,14.56
2019-06-27T00:40:41.998Z,14.56
2019-06-27T00:41:15.005Z,14.56
2019-06-27T00:41:48.948Z,14.56
2019-06-27T00:42:21.952Z,14.56
2019-06-27T00:42:54.872Z,14.56
2019-06-27T00:43:27.818Z,14.56
2019-06-27T00:44:00.876Z,14.50
2019-06-27T00:44:33.868Z,14.50
2019-06-27T00:45:08.566Z,14.50
2019-06-27T00:45:42.573Z,14.50
2019-06-27T00:46:15.627Z,14.50
2019-06-27T00:46:48.529Z,14.50
2019-06-27T00:47:21.461Z,14.50
2019-06-27T00:47:54.450Z,14.50
2019-06-27T00:48:27.389Z,14.50
2019-06-27T00:49:00.316Z,14.50
2019-06-27T00:49:33.246Z,14.50
2019-06-27T00:50:08.511Z,14.50
2019-06-27T00:50:41.535Z,14.50
2019-06-27T00:51:14.594Z,14.50
2019-06-27T00:51:47.985Z,14.50
2019-06-27T00:52:21.058Z,14.50
2019-06-27T00:52:54.158Z,14.56
2019-06-27T00:53:26.996Z,14.56
2019-06-27T00:53:59.999Z,14.50
2019-06-27T00:54:32.966Z,14.50
2019-06-27T00:55:07.298Z,14.50
2019-06-27T00:55:40.400Z,14.50
2019-06-27T00:56:13.296Z,14.50
2019-06-27T00:56:46.356Z,14.50
2019-06-27T00:57:19.362Z,14.50
2019-06-27T00:57:52.290Z,14.50
2019-06-27T00:58:25.308Z,14.50
2019-06-27T00:58:58.387Z,14.50
2019-06-27T00:59:31.324Z,14.50
2019-06-27T01:00:05.530Z,14.50
2019-06-27T01:00:38.798Z,14.50
2019-06-27T01:01:11.830Z,14.50
2019-06-27T01:01:44.743Z,14.50
2019-06-27T01:02:17.795Z,14.50
2019-06-27T01:02:50.873Z,14.50
2019-06-27T01:03:23.797Z,14.50
2019-06-27T01:03:56.857Z,14.50
2019-06-27T01:04:29.938Z,14.50
2019-06-27T01:05:05.352Z,14.50
2019-06-27T01:05:38.485Z,14.50
2019-06-27T01:06:11.468Z,14.50
2019-06-27T01:06:44.613Z,14.50
2019-06-27T01:07:18.610Z,14.50
2019-06-27T01:07:51.606Z,14.50
2019-06-27T01:08:24.605Z,14.50
2019-06-27T01:08:57.657Z,14.44
2019-06-27T01:09:30.716Z,14.44
2019-06-27T01:10:04.434Z,14.44
2019-06-27T01:10:37.402Z,14.44
2019-06-27T01:11:10.820Z,14.44
2019-06-27T01:11:44.054Z,14.44
2019-06-27T01:12:17.005Z,14.44
2019-06-27T01:12:50.130Z,14.44
2019-06-27T01:13:24.288Z,14.44
2019-06-27T01:13:57.420Z,14.44
2019-06-27T01:14:30.643Z,14.44
2019-06-27T01:15:04.076Z,14.44
2019-06-27T01:15:37.250Z,14.44
2019-06-27T01:16:10.211Z,14.44
2019-06-27T01:16:43.363Z,14.44
2019-06-27T01:17:16.368Z,14.44
2019-06-27T01:17:49.447Z,14.44
2019-06-27T01:18:22.566Z,14.44
2019-06-27T01:18:55.678Z,14.44
2019-06-27T01:19:28.722Z,14.44
2019-06-27T01:20:01.860Z,14.44
2019-06-27T01:20:34.959Z,14.44
2019-06-27T01:21:08.034Z,14.44
2019-06-27T01:21:40.924Z,14.44
2019-06-27T01:22:13.874Z,14.44
2019-06-27T01:22:46.884Z,14.44
2019-06-27T01:23:19.739Z,14.44
2019-06-27T01:23:52.916Z,14.44
2019-06-27T01:24:25.900Z,14.44
2019-06-27T01:24:58.936Z,14.44
2019-06-27T01:25:32.122Z,14.38
2019-06-27T01:26:05.126Z,14.44
2019-06-27T01:26:38.128Z,14.38
2019-06-27T01:27:11.105Z,14.38
2019-06-27T01:27:44.302Z,14.38
2019-06-27T01:28:17.302Z,14.38
2019-06-27T01:28:50.441Z,14.38
2019-06-27T01:29:23.382Z,14.38
2019-06-27T01:29:56.396Z,14.38
2019-06-27T01:30:29.570Z,14.38
2019-06-27T01:31:02.646Z,14.38
2019-06-27T01:31:35.769Z,14.38
2019-06-27T01:32:08.822Z,14.31
2019-06-27T01:32:41.840Z,14.31
2019-06-27T01:33:14.876Z,14.31
2019-06-27T01:33:47.872Z,14.31
2019-06-27T01:34:20.788Z,14.31
2019-06-27T01:34:53.690Z,14.31
2019-06-27T01:35:26.726Z,14.31
2019-06-27T01:35:59.759Z,14.31
2019-06-27T01:36:32.890Z,14.31
2019-06-27T01:37:05.684Z,14.31
2019-06-27T01:37:38.765Z,14.31
2019-06-27T01:38:11.839Z,14.31
2019-06-27T01:38:44.826Z,14.31
2019-06-27T01:39:17.777Z,14.31
2019-06-27T01:39:51.833Z,14.31
2019-06-27T01:40:24.882Z,14.31
2019-06-27T01:40:58.900Z,14.31
2019-06-27T01:41:32.006Z,14.31
2019-06-27T01:42:05.134Z,14.31
2019-06-27T01:42:38.182Z,14.31
2019-06-27T01:43:11.246Z,14.31
2019-06-27T01:43:44.286Z,14.31
2019-06-27T01:44:36.199Z,14.31
2019-06-27T01:45:18.844Z,14.31
2019-06-27T01:45:54.352Z,14.25
2019-06-27T01:46:28.376Z,14.31
2019-06-27T01:47:01.864Z,14.25
2019-06-27T01:47:35.936Z,14.25
2019-06-27T01:48:09.004Z,14.25
2019-06-27T01:48:41.983Z,14.25
2019-06-27T01:49:14.992Z,14.31
2019-06-27T01:49:48.116Z,14.31
2019-06-27T01:50:21.204Z,14.31
2019-06-27T01:50:54.230Z,14.31
2019-06-27T01:51:27.128Z,14.25
2019-06-27T01:52:00.280Z,14.25
2019-06-27T01:52:33.426Z,14.25
2019-06-27T01:53:06.499Z,14.31
2019-06-27T01:53:39.519Z,14.31
2019-06-27T01:54:14.752Z,14.31
2019-06-27T01:54:47.694Z,14.25
2019-06-27T01:55:20.850Z,14.25
2019-06-27T01:55:53.769Z,14.25
2019-06-27T01:56:26.738Z,14.25
2019-06-27T01:56:59.798Z,14.25
2019-06-27T01:57:45.991Z,14.25
2019-06-27T01:58:07.744Z,14.25
2019-06-27T01:58:41.580Z,14.25
2019-06-27T01:59:14.382Z,14.25
2019-06-27T01:59:47.464Z,14.25
2019-06-27T02:00:22.384Z,14.19
2019-06-27T02:00:55.458Z,14.19
2019-06-27T02:01:28.468Z,14.19
2019-06-27T02:02:01.572Z,14.13
2019-06-27T02:02:34.667Z,14.13
2019-06-27T02:03:07.822Z,14.13
2019-06-27T02:03:40.841Z,14.13
2019-06-27T02:04:13.871Z,14.06
2019-06-27T02:04:46.992Z,14.06
2019-06-27T02:05:20.118Z,14.00
2019-06-27T02:05:53.228Z,14.00
2019-06-27T02:06:26.163Z,14.00
2019-06-27T02:06:59.273Z,14.00
2019-06-27T02:07:32.692Z,13.94
2019-06-27T02:08:05.880Z,13.94
2019-06-27T02:08:38.854Z,13.94
2019-06-27T02:09:11.826Z,13.88
2019-06-27T02:09:44.800Z,13.88
2019-06-27T02:10:18.131Z,13.88
2019-06-27T02:10:51.156Z,13.88
2019-06-27T02:11:24.168Z,13.88
2019-06-27T02:11:57.172Z,13.81
2019-06-27T02:12:30.195Z,13.81
2019-06-27T02:13:03.440Z,13.81
2019-06-27T02:13:36.540Z,13.81
2019-06-27T02:14:09.444Z,13.81
2019-06-27T02:14:42.454Z,13.81
2019-06-27T02:15:16.222Z,13.81
2019-06-27T02:15:49.320Z,13.81
2019-06-27T02:16:23.697Z,13.81
2019-06-27T02:16:56.788Z,13.81
2019-06-27T02:17:29.857Z,13.81
2019-06-27T02:18:02.954Z,13.81
2019-06-27T02:18:36.118Z,13.81
2019-06-27T02:19:09.232Z,13.81
2019-06-27T02:19:43.210Z,13.75
2019-06-27T02:20:16.611Z,13.75
2019-06-27T02:20:49.558Z,13.75
2019-06-27T02:21:22.568Z,13.75
2019-06-27T02:21:55.484Z,13.81
2019-06-27T02:22:28.480Z,13.75
2019-06-27T02:23:01.537Z,13.75
2019-06-27T02:23:34.578Z,13.75
2019-06-27T02:24:07.585Z,13.75
2019-06-27T02:24:40.567Z,13.75
2019-06-27T02:25:15.428Z,13.75
2019-06-27T02:25:48.425Z,13.75
2019-06-27T02:26:23.023Z,13.69
2019-06-27T02:26:56.149Z,13.69
2019-06-27T02:27:29.162Z,13.69
2019-06-27T02:28:04.206Z,13.69
2019-06-27T02:28:37.158Z,13.69
2019-06-27T02:29:10.114Z,13.62
2019-06-27T02:29:43.115Z,13.62
2019-06-27T02:30:29.447Z,13.62
2019-06-27T02:31:02.601Z,13.62
2019-06-27T02:31:35.643Z,13.56
2019-06-27T02:32:08.607Z,13.56
2019-06-27T02:32:41.768Z,13.56
2019-06-27T02:33:14.942Z,13.56
2019-06-27T02:33:47.910Z,13.56
2019-06-27T02:34:20.971Z,13.56
2019-06-27T02:34:53.984Z,13.56
2019-06-27T02:35:27.187Z,13.56
2019-06-27T02:36:00.130Z,13.56
2019-06-27T02:36:33.297Z,13.56
2019-06-27T02:37:06.198Z,13.50
2019-06-27T02:37:39.758Z,13.50
2019-06-27T02:38:12.740Z,13.50
2019-06-27T02:38:45.870Z,13.50
2019-06-27T02:39:18.767Z,13.50
2019-06-27T02:39:51.905Z,13.44
2019-06-27T02:40:25.013Z,13.44
2019-06-27T02:40:58.863Z,13.44
2019-06-27T02:41:32.247Z,13.44
2019-06-27T02:42:05.308Z,13.44
2019-06-27T02:42:38.236Z,13.44
2019-06-27T02:43:11.248Z,13.38
2019-06-27T02:43:44.201Z,13.38
2019-06-27T02:44:17.010Z,13.38
2019-06-27T02:44:50.008Z,13.38
2019-06-27T02:45:24.127Z,13.31
2019-06-27T02:45:57.099Z,13.31
2019-06-27T02:46:30.158Z,13.31
2019-06-27T02:47:03.121Z,13.31
2019-06-27T02:47:36.323Z,13.31
2019-06-27T02:48:09.465Z,13.31
2019-06-27T02:48:42.538Z,13.25
2019-06-27T02:49:15.600Z,13.25
2019-06-27T02:49:50.476Z,13.25
2019-06-27T02:50:23.609Z,13.25
2019-06-27T02:50:56.819Z,13.25
2019-06-27T02:51:29.891Z,13.19
2019-06-27T02:52:03.082Z,13.19
2019-06-27T02:52:36.192Z,13.19
2019-06-27T02:53:09.233Z,13.19
2019-06-27T02:53:42.234Z,13.19
2019-06-27T02:54:15.302Z,13.13
2019-06-27T02:54:48.205Z,13.13
2019-06-27T02:55:21.326Z,13.13
2019-06-27T02:55:54.343Z,13.13
2019-06-27T02:56:27.217Z,13.13
2019-06-27T02:57:00.122Z,13.06
2019-06-27T02:57:33.163Z,13.06
2019-06-27T02:58:27.742Z,13.06
2019-06-27T02:58:41.314Z,13.06
2019-06-27T02:59:14.223Z,13.06
2019-06-27T02:59:47.202Z,13.06
2019-06-27T03:00:20.470Z,13.06
2019-06-27T03:00:53.588Z,13.00
2019-06-27T03:01:26.598Z,13.00
2019-06-27T03:01:59.590Z,13.00
2019-06-27T03:02:32.639Z,13.00
2019-06-27T03:03:05.578Z,13.00
2019-06-27T03:03:38.673Z,13.00
2019-06-27T03:04:11.625Z,13.00
2019-06-27T03:04:44.513Z,12.94
2019-06-27T03:05:17.880Z,12.94
2019-06-27T03:05:50.887Z,12.94
2019-06-27T03:06:24.165Z,12.94
2019-06-27T03:06:57.317Z,12.94
2019-06-27T03:07:30.235Z,12.94
2019-06-27T03:08:03.332Z,12.94
2019-06-27T03:08:36.526Z,12.94
2019-06-27T03:09:09.426Z,12.94
2019-06-27T03:09:42.377Z,12.94
2019-06-27T03:10:15.761Z,12.94
2019-06-27T03:10:49.007Z,12.94
2019-06-27T03:11:21.989Z,12.94
2019-06-27T03:11:59.566Z,12.94
2019-06-27T03:12:30.206Z,12.94
2019-06-27T03:13:03.175Z,12.94
2019-06-27T03:13:36.289Z,12.94
2019-06-27T03:14:09.419Z,12.94
2019-06-27T03:14:42.383Z,13.00
2019-06-27T03:15:15.516Z,13.00
2019-06-27T03:15:48.526Z,13.00
2019-06-27T03:16:21.648Z,13.00
2019-06-27T03:16:54.681Z,13.06
2019-06-27T03:17:27.623Z,13.06
2019-06-27T03:18:00.811Z,13.06
2019-06-27T03:18:33.997Z,13.06
2019-06-27T03:19:08.105Z,13.06
2019-06-27T03:19:41.058Z,13.06
2019-06-27T03:20:14.181Z,13.06
2019-06-27T03:20:47.138Z,13.06
2019-06-27T03:21:20.064Z,13.06
2019-06-27T03:21:54.253Z,13.06
2019-06-27T03:22:27.225Z,13.13
2019-06-27T03:23:00.275Z,13.13
2019-06-27T03:23:33.243Z,13.13
2019-06-27T03:24:06.313Z,13.13
2019-06-27T03:24:39.235Z,13.13
2019-06-27T03:25:12.271Z,13.13
2019-06-27T03:25:45.176Z,13.13
2019-06-27T03:26:18.249Z,13.13
2019-06-27T03:26:51.230Z,13.13
2019-06-27T03:27:24.330Z,13.13
2019-06-27T03:27:57.203Z,13.13
2019-06-27T03:28:49.768Z,13.13
2019-06-27T03:29:05.037Z,13.19
2019-06-27T03:29:38.113Z,13.19
2019-06-27T03:30:11.455Z,13.19
2019-06-27T03:30:44.531Z,13.19
2019-06-27T03:31:17.767Z,13.19
2019-06-27T03:31:50.755Z,13.19
2019-06-27T03:32:23.754Z,13.19
2019-06-27T03:32:56.771Z,13.19
2019-06-27T03:33:29.649Z,13.19
2019-06-27T03:34:02.705Z,13.19
2019-06-27T03:34:35.774Z,13.13
2019-06-27T03:35:09.009Z,13.13
2019-06-27T03:35:41.814Z,13.13
2019-06-27T03:36:14.916Z,13.13
2019-06-27T03:36:47.930Z,13.13
2019-06-27T03:37:20.996Z,13.13
2019-06-27T03:37:55.004Z,13.13
2019-06-27T03:38:28.025Z,13.13
2019-06-27T03:39:00.961Z,13.19
2019-06-27T03:39:34.052Z,13.19
2019-06-27T03:40:07.393Z,13.19
2019-06-27T03:40:40.472Z,13.19
2019-06-27T03:41:13.493Z,13.19
2019-06-27T03:41:46.630Z,13.19
2019-06-27T03:42:19.945Z,13.19
2019-06-27T03:42:54.006Z,13.19
2019-06-27T03:43:26.931Z,13.19
2019-06-27T03:44:00.324Z,13.19
2019-06-27T03:44:33.325Z,13.19
2019-06-27T03:45:07.336Z,13.19
2019-06-27T03:45:40.366Z,13.19
2019-06-27T03:46:13.345Z,13.19
2019-06-27T03:46:46.528Z,13.19
2019-06-27T03:47:19.469Z,13.25
2019-06-27T03:47:52.517Z,13.19
2019-06-27T03:48:25.742Z,13.19
2019-06-27T03:48:58.726Z,13.19
2019-06-27T03:49:31.638Z,13.19
2019-06-27T03:50:06.304Z,13.25
2019-06-27T03:50:39.523Z,13.25
2019-06-27T03:51:12.538Z,13.25
2019-06-27T03:51:45.562Z,13.25
2019-06-27T03:52:18.601Z,13.25
2019-06-27T03:52:51.634Z,13.25
2019-06-27T03:53:24.680Z,13.25
2019-06-27T03:53:57.766Z,13.25
2019-06-27T03:54:30.655Z,13.25
2019-06-27T03:55:03.906Z,13.25
2019-06-27T03:55:36.974Z,13.25
2019-06-27T03:56:09.900Z,13.25
2019-06-27T03:56:45.277Z,13.25
2019-06-27T03:57:19.292Z,13.31
2019-06-27T03:57:52.138Z,13.31
2019-06-27T03:58:25.134Z,13.31
2019-06-27T03:59:11.253Z,13.31
2019-06-27T03:59:33.060Z,13.31
2019-06-27T04:00:07.292Z,13.31
2019-06-27T04:00:40.460Z,13.31
2019-06-27T04:01:13.647Z,13.31
2019-06-27T04:01:47.010Z,13.31
2019-06-27T04:02:20.125Z,13.31
2019-06-27T04:02:53.246Z,13.31
2019-06-27T04:03:26.455Z,13.31
2019-06-27T04:03:59.528Z,13.38
2019-06-27T04:04:32.623Z,13.38
2019-06-27T04:05:06.484Z,13.38
2019-06-27T04:05:39.644Z,13.38
2019-06-27T04:06:12.625Z,13.38
2019-06-27T04:06:45.771Z,13.31
2019-06-27T04:07:18.965Z,13.31
2019-06-27T04:07:52.013Z,13.38
2019-06-27T04:08:24.911Z,13.31
2019-06-27T04:08:58.928Z,13.38
2019-06-27T04:09:31.965Z,13.38
2019-06-27T04:10:05.056Z,13.38
2019-06-27T04:10:38.141Z,13.38
2019-06-27T04:11:11.199Z,13.38
2019-06-27T04:11:44.190Z,13.38
2019-06-27T04:12:17.145Z,13.38
2019-06-27T04:12:51.215Z,13.38
2019-06-27T04:13:24.250Z,13.38
2019-06-27T04:13:57.339Z,13.38
2019-06-27T04:14:30.401Z,13.38
2019-06-27T04:15:03.986Z,13.38
2019-06-27T04:15:37.187Z,13.38
2019-06-27T04:16:10.215Z,13.44
2019-06-27T04:16:43.282Z,13.44
2019-06-27T04:17:16.379Z,13.38
2019-06-27T04:17:49.422Z,13.38
2019-06-27T04:18:22.407Z,13.38
2019-06-27T04:18:56.436Z,13.38
2019-06-27T04:19:29.418Z,13.38
2019-06-27T04:20:03.745Z,13.38
2019-06-27T04:20:36.664Z,13.38
2019-06-27T04:21:09.694Z,13.38
2019-06-27T04:21:43.694Z,13.44
2019-06-27T04:22:17.782Z,13.44
2019-06-27T04:22:50.983Z,13.44
2019-06-27T04:23:24.079Z,13.44
2019-06-27T04:23:56.994Z,13.44
2019-06-27T04:24:29.953Z,13.44
2019-06-27T04:25:03.127Z,13.44
2019-06-27T04:25:37.604Z,13.50
2019-06-27T04:26:10.687Z,13.50
2019-06-27T04:26:45.261Z,13.50
2019-06-27T04:27:18.289Z,13.50
2019-06-27T04:27:51.363Z,13.50
2019-06-27T04:28:24.332Z,13.50
2019-06-27T04:28:58.594Z,13.56
2019-06-27T04:29:34.115Z,13.56
2019-06-27T04:30:07.439Z,13.56
2019-06-27T04:30:40.463Z,13.56
2019-06-27T04:31:13.549Z,13.56
2019-06-27T04:31:46.448Z,13.62
2019-06-27T04:32:19.503Z,13.62
2019-06-27T04:32:52.443Z,13.62
2019-06-27T04:33:25.379Z,13.62
2019-06-27T04:33:58.433Z,13.62
2019-06-27T04:34:31.431Z,13.62
2019-06-27T04:35:05.261Z,13.62
2019-06-27T04:35:38.440Z,13.62
2019-06-27T04:36:11.517Z,13.62
2019-06-27T04:36:44.723Z,13.62
2019-06-27T04:37:17.728Z,13.62
2019-06-27T04:37:50.839Z,13.69
2019-06-27T04:38:24.535Z,13.69
2019-06-27T04:38:57.593Z,13.69
2019-06-27T04:39:30.668Z,13.69
2019-06-27T04:40:04.122Z,13.69
2019-06-27T04:40:37.171Z,13.69
2019-06-27T04:41:10.329Z,13.69
2019-06-27T04:41:43.273Z,13.75
2019-06-27T04:42:16.325Z,13.75
2019-06-27T04:42:49.247Z,13.75
2019-06-27T04:43:22.451Z,13.75
2019-06-27T04:43:55.615Z,13.75
2019-06-27T04:44:28.809Z,13.75
2019-06-27T04:45:03.339Z,13.81
2019-06-27T04:45:36.539Z,13.81
2019-06-27T04:46:09.696Z,13.81
2019-06-27T04:46:42.664Z,13.81
2019-06-27T04:47:15.605Z,13.81
2019-06-27T04:47:48.472Z,13.81
2019-06-27T04:48:21.374Z,13.81
2019-06-27T04:48:54.417Z,13.81
2019-06-27T04:49:27.539Z,13.81
2019-06-27T04:50:00.624Z,13.88
2019-06-27T04:50:33.577Z,13.88
2019-06-27T04:51:06.570Z,13.88
2019-06-27T04:51:40.741Z,13.88
2019-06-27T04:52:13.841Z,13.88
2019-06-27T04:52:46.789Z,13.88
2019-06-27T04:53:19.817Z,13.88
2019-06-27T04:53:54.277Z,13.94
2019-06-27T04:54:27.247Z,13.94
2019-06-27T04:55:03.576Z,13.94
2019-06-27T04:55:35.204Z,13.94
2019-06-27T04:56:08.258Z,13.94
2019-06-27T04:56:41.459Z,13.94
2019-06-27T04:57:14.430Z,14.00
2019-06-27T04:57:47.472Z,14.00
2019-06-27T04:58:20.460Z,14.00
2019-06-27T04:58:53.433Z,14.00
2019-06-27T04:59:26.294Z,14.00
2019-06-27T04:59:59.121Z,14.00
2019-06-27T05:00:33.232Z,14.00
2019-06-27T05:01:06.301Z,14.00
2019-06-27T05:01:39.432Z,14.00
2019-06-27T05:02:12.464Z,14.06
2019-06-27T05:02:46.653Z,14.06
2019-06-27T05:03:19.615Z,14.06
2019-06-27T05:03:52.574Z,14.06
2019-06-27T05:04:25.454Z,14.06
2019-06-27T05:04:59.470Z,14.06
2019-06-27T05:05:32.490Z,14.13
2019-06-27T05:06:05.567Z,14.13
2019-06-27T05:06:38.660Z,14.13
2019-06-27T05:07:11.634Z,14.13
2019-06-27T05:07:44.588Z,14.19
2019-06-27T05:08:18.068Z,14.19
2019-06-27T05:08:51.317Z,14.19
2019-06-27T05:09:24.282Z,14.19
2019-06-27T05:09:57.458Z,14.25
2019-06-27T05:10:31.991Z,14.25
2019-06-27T05:11:05.060Z,14.25
2019-06-27T05:11:38.080Z,14.25
2019-06-27T05:12:11.027Z,14.25
2019-06-27T05:12:44.390Z,14.25
2019-06-27T05:13:17.321Z,14.25
2019-06-27T05:13:50.308Z,14.31
2019-06-27T05:14:24.197Z,14.31
2019-06-27T05:14:57.151Z,14.31
2019-06-27T05:15:30.067Z,14.31
2019-06-27T05:16:03.300Z,14.31
2019-06-27T05:16:38.893Z,14.31
2019-06-27T05:17:11.795Z,14.31
2019-06-27T05:17:44.747Z,14.31
2019-06-27T05:18:17.714Z,14.31
2019-06-27T05:18:50.667Z,14.31
2019-06-27T05:19:23.579Z,14.31
2019-06-27T05:19:56.437Z,14.31
2019-06-27T05:20:29.485Z,14.31
2019-06-27T05:21:02.505Z,14.31
2019-06-27T05:21:35.549Z,14.31
2019-06-27T05:22:08.666Z,14.38
2019-06-27T05:22:41.677Z,14.38
2019-06-27T05:23:14.495Z,14.38
2019-06-27T05:23:47.273Z,14.38
2019-06-27T05:24:21.190Z,14.38
2019-06-27T05:24:54.182Z,14.38
2019-06-27T05:25:29.708Z,14.38
2019-06-27T05:26:02.413Z,14.38
2019-06-27T05:26:37.087Z,14.44
2019-06-27T05:27:10.091Z,14.44
2019-06-27T05:27:42.932Z,14.44
2019-06-27T05:28:15.839Z,14.44
2019-06-27T05:28:48.689Z,14.44
2019-06-27T05:29:21.820Z,14.44
2019-06-27T05:30:08.180Z,14.44
2019-06-27T05:30:29.876Z,14.50
2019-06-27T05:31:02.870Z,14.50
2019-06-27T05:31:35.955Z,14.50
2019-06-27T05:32:08.894Z,14.50
2019-06-27T05:32:41.760Z,14.50
2019-06-27T05:33:14.581Z,14.50
2019-06-27T05:33:47.479Z,14.50
2019-06-27T05:34:21.518Z,14.50
2019-06-27T05:34:54.372Z,14.50
2019-06-27T05:35:27.329Z,14.50
2019-06-27T05:36:02.464Z,14.50
2019-06-27T05:36:35.126Z,14.50
2019-06-27T05:37:08.142Z,14.50
2019-06-27T05:37:41.147Z,14.50
2019-06-27T05:38:14.023Z,14.56
2019-06-27T05:38:47.024Z,14.56
2019-06-27T05:39:20.028Z,14.56
2019-06-27T05:39:53.003Z,14.56
2019-06-27T05:40:26.084Z,14.56
2019-06-27T05:40:59.230Z,14.56
2019-06-27T05:41:32.625Z,14.63
2019-06-27T05:42:05.577Z,14.63
2019-06-27T05:42:38.499Z,14.63
2019-06-27T05:43:11.442Z,14.63
2019-06-27T05:43:44.334Z,14.63
2019-06-27T05:44:17.348Z,14.63
2019-06-27T05:44:50.246Z,14.56
2019-06-27T05:45:24.360Z,14.56
2019-06-27T05:45:57.312Z,14.56
2019-06-27T05:46:31.069Z,14.63
2019-06-27T05:47:04.003Z,14.63
2019-06-27T05:47:37.335Z,14.63
2019-06-27T05:48:10.256Z,14.63
2019-06-27T05:48:43.206Z,14.63
2019-06-27T05:49:16.107Z,14.63
2019-06-27T05:49:49.168Z,14.63
2019-06-27T05:50:22.178Z,14.63
2019-06-27T05:50:55.028Z,14.63
2019-06-27T05:51:28.202Z,14.63
2019-06-27T05:52:01.222Z,14.63
2019-06-27T05:52:34.246Z,14.63
2019-06-27T05:53:07.197Z,14.69
2019-06-27T05:53:40.107Z,14.69
2019-06-27T05:54:13.016Z,14.69
2019-06-27T05:54:45.893Z,14.69
2019-06-27T05:55:19.494Z,14.69
2019-06-27T05:55:52.604Z,14.69
2019-06-27T05:56:25.668Z,14.75
2019-06-27T05:57:16.393Z,14.75
2019-06-27T05:57:49.353Z,14.75
2019-06-27T05:58:22.773Z,14.75
2019-06-27T05:58:56.548Z,14.75
2019-06-27T05:59:29.549Z,14.75
2019-06-27T06:00:03.326Z,14.75
2019-06-27T06:00:37.753Z,14.81
2019-06-27T06:01:10.969Z,14.81
2019-06-27T06:01:43.952Z,14.81
2019-06-27T06:02:17.124Z,14.81
2019-06-27T06:02:50.306Z,14.87
2019-06-27T06:03:23.302Z,14.87
2019-06-27T06:03:56.404Z,14.87
2019-06-27T06:04:30.812Z,14.94
2019-06-27T06:05:04.195Z,14.94
2019-06-27T06:05:39.810Z,15.00
2019-06-27T06:06:12.669Z,15.00
2019-06-27T06:06:45.651Z,15.06
2019-06-27T06:07:18.678Z,15.06
2019-06-27T06:07:52.767Z,15.06
2019-06-27T06:08:25.923Z,15.06
2019-06-27T06:08:59.054Z,15.06
2019-06-27T06:09:33.128Z,15.06
2019-06-27T06:10:07.804Z,15.06
2019-06-27T06:10:40.893Z,15.06
2019-06-27T06:11:14.189Z,15.13
2019-06-27T06:11:50.024Z,15.13
2019-06-27T06:12:23.071Z,15.13
2019-06-27T06:12:56.072Z,15.13
2019-06-27T06:13:29.141Z,15.19
2019-06-27T06:14:02.635Z,15.19
2019-06-27T06:14:35.808Z,15.19
2019-06-27T06:15:09.193Z,15.19
2019-06-27T06:15:43.527Z,15.25
2019-06-27T06:16:16.549Z,15.25
2019-06-27T06:16:49.675Z,15.25
2019-06-27T06:17:22.736Z,15.25
2019-06-27T06:17:56.853Z,15.25
2019-06-27T06:18:29.855Z,15.25
2019-06-27T06:19:02.903Z,15.25
2019-06-27T06:19:36.163Z,15.31
2019-06-27T06:20:09.541Z,15.31
2019-06-27T06:20:42.444Z,15.31
2019-06-27T06:21:15.477Z,15.31
2019-06-27T06:21:48.559Z,15.31
2019-06-27T06:22:21.477Z,15.31
2019-06-27T06:22:54.450Z,15.31
2019-06-27T06:23:27.474Z,15.31
2019-06-27T06:24:00.435Z,15.31
2019-06-27T06:24:33.464Z,15.31
2019-06-27T06:25:06.614Z,15.31
2019-06-27T06:25:41.242Z,15.31
2019-06-27T06:26:14.209Z,15.38
2019-06-27T06:26:47.277Z,15.44
2019-06-27T06:27:20.552Z,15.44
2019-06-27T06:27:53.424Z,15.44
2019-06-27T06:28:26.378Z,15.50
2019-06-27T06:28:59.538Z,15.50
2019-06-27T06:29:32.536Z,15.56
2019-06-27T06:30:07.355Z,15.56
2019-06-27T06:30:44.798Z,15.56
2019-06-27T06:31:15.243Z,15.56
2019-06-27T06:31:49.578Z,15.56
2019-06-27T06:32:22.796Z,15.56
2019-06-27T06:32:55.749Z,15.56
2019-06-27T06:33:28.763Z,15.50
2019-06-27T06:34:01.938Z,15.50
2019-06-27T06:34:35.134Z,15.50
2019-06-27T06:35:09.391Z,15.50
2019-06-27T06:35:42.421Z,15.50
2019-06-27T06:36:15.493Z,15.50
2019-06-27T06:36:48.658Z,15.50
2019-06-27T06:37:21.679Z,15.50
2019-06-27T06:37:54.816Z,15.50
2019-06-27T06:38:27.973Z,15.50
2019-06-27T06:39:01.275Z,15.56
2019-06-27T06:39:35.131Z,15.56
2019-06-27T06:40:08.801Z,15.56
2019-06-27T06:40:42.429Z,15.63
2019-06-27T06:41:15.567Z,15.63
2019-06-27T06:41:48.931Z,15.63
2019-06-27T06:42:22.199Z,15.56
2019-06-27T06:43:00.150Z,15.56
2019-06-27T06:43:30.705Z,15.63
2019-06-27T06:44:03.861Z,15.63
2019-06-27T06:44:38.612Z,15.63
2019-06-27T06:45:12.413Z,15.63
2019-06-27T06:45:45.628Z,15.63
2019-06-27T06:46:18.922Z,15.63
2019-06-27T06:46:52.230Z,15.69
2019-06-27T06:47:25.510Z,15.75
2019-06-27T06:47:58.809Z,15.81
2019-06-27T06:48:31.948Z,15.81
2019-06-27T06:49:04.920Z,15.88
2019-06-27T06:49:38.238Z,15.88
2019-06-27T06:50:11.393Z,15.94
2019-06-27T06:50:44.603Z,15.94
2019-06-27T06:51:17.657Z,16.00
2019-06-27T06:51:50.792Z,16.00
2019-06-27T06:52:24.022Z,16.06
2019-06-27T06:52:57.147Z,16.06
2019-06-27T06:53:30.209Z,16.06
2019-06-27T06:54:03.391Z,16.06
2019-06-27T06:54:36.847Z,16.00
2019-06-27T06:55:10.026Z,16.00
2019-06-27T06:55:43.182Z,16.00
2019-06-27T06:56:16.285Z,16.00
2019-06-27T06:56:49.344Z,15.94
2019-06-27T06:57:22.323Z,15.94
2019-06-27T06:57:56.407Z,15.94
2019-06-27T06:58:29.353Z,15.94
2019-06-27T06:59:02.415Z,15.94
2019-06-27T06:59:35.384Z,15.94
2019-06-27T07:00:11.687Z,15.88
2019-06-27T07:01:00.227Z,15.81
2019-06-27T07:01:19.703Z,15.81
2019-06-27T07:01:52.967Z,15.75
2019-06-27T07:02:25.899Z,15.75
2019-06-27T07:02:58.954Z,15.75
2019-06-27T07:03:32.197Z,15.75
2019-06-27T07:04:05.246Z,15.75
2019-06-27T07:04:38.125Z,15.81
2019-06-27T07:05:11.279Z,15.88
2019-06-27T07:05:44.313Z,15.94
2019-06-27T07:06:18.240Z,15.94
2019-06-27T07:06:51.437Z,16.00
2019-06-27T07:07:24.381Z,16.06
2019-06-27T07:07:57.396Z,16.06
2019-06-27T07:08:30.474Z,16.12
2019-06-27T07:09:04.413Z,16.19